Time;durP1;ratioP1;P1;durP2;ratioP2;P2;SDS_P1;SDS_P2;PMS_P1;PMS_P2;Temp;Humidity;BMP_temperature;BMP_pressure;BME280_temperature;BME280_humidity;BME280_pressure;Samples;Min_cycle;Max_cycle;Signal;HPM_P1;HPM_P2
2021/04/11 00:00:27;;;;;;;;;;;23.80;32.70;;;;;;5044883;28;20354;-76
2021/04/11 00:02:54;;;;;;;;;;;23.70;33.40;;;;;;5049278;28;19923;-76
2021/04/11 00:05:21;;;;;;;;;;;23.70;33.80;;;;;;5051937;28;19917;-76
2021/04/11 00:07:47;;;;;;;;;;;23.80;32.00;;;;;;5046722;28;19909;-75
2021/04/11 00:10:29;;;;;;;;;;;23.70;32.80;;;;;;5053344;28;19912;-76
2021/04/11 00:12:55;;;;;;;;;;;23.80;33.40;;;;;;5056222;28;19952;-76
2021/04/11 00:15:21;;;;;;;;;;;23.80;34.20;;;;;;5043387;28;19963;-76
2021/04/11 00:17:47;;;;;;;;;;;23.50;34.50;;;;;;5039295;28;19959;-76
2021/04/11 00:20:14;;;;;;;;;;;23.40;35.50;;;;;;5052939;28;19917;-76
2021/04/11 00:22:40;;;;;;;;;;;23.30;34.80;;;;;;5055141;28;20373;-74
2021/04/11 00:25:10;;;;;;;;;;;23.30;35.20;;;;;;5036932;28;19908;-76
2021/04/11 00:27:36;;;;;;;;;;;23.40;34.40;;;;;;5055802;28;19904;-76
2021/04/11 00:30:03;;;;;;;;;;;23.30;33.80;;;;;;5055873;28;19948;-76
2021/04/11 00:32:29;;;;;;;;;;;23.10;34.30;;;;;;5053951;28;19909;-76
2021/04/11 00:34:55;;;;;;;;;;;22.90;34.90;;;;;;5054821;28;19971;-76
2021/04/11 00:37:22;;;;;;;;;;;22.80;35.20;;;;;;5054768;28;19913;-76
2021/04/11 00:39:48;;;;;;;;;;;22.60;35.60;;;;;;5037309;28;19959;-76
2021/04/11 00:42:19;;;;;;;;;;;22.40;34.80;;;;;;5054590;28;19917;-76
2021/04/11 00:44:46;;;;;;;;;;;22.20;35.50;;;;;;5055798;28;19905;-76
2021/04/11 00:47:12;;;;;;;;;;;22.10;35.80;;;;;;5054118;28;19909;-76
2021/04/11 00:49:40;;;;;;;;;;;21.90;36.30;;;;;;5054888;28;19916;-76
2021/04/11 00:52:07;;;;;;;;;;;21.90;36.50;;;;;;5049774;28;19920;-76
2021/04/11 00:54:33;;;;;;;;;;;21.80;36.70;;;;;;5024943;28;19909;-76
2021/04/11 00:57:03;;;;;;;;;;;21.50;37.30;;;;;;5035512;28;20278;-76
2021/04/11 00:59:30;;;;;;;;;;;21.50;37.30;;;;;;5035991;28;19928;-76
2021/04/11 01:01:56;;;;;;;;;;;21.40;37.60;;;;;;5035755;28;19909;-78
2021/04/11 01:04:22;;;;;;;;;;;21.20;37.80;;;;;;5038199;28;19904;-76
2021/04/11 01:06:49;;;;;;;;;;;21.20;37.70;;;;;;5055073;28;19924;-77
2021/04/11 01:09:21;;;;;;;;;;;21.10;38.10;;;;;;5055117;28;19962;-76
2021/04/11 01:11:48;;;;;;;;;;;20.80;38.50;;;;;;5055195;28;19912;-76
2021/04/11 01:14:14;;;;;;;;;;;20.80;38.60;;;;;;5055068;28;20365;-76
2021/04/11 01:16:41;;;;;;;;;;;20.80;38.50;;;;;;5054945;28;19912;-76
2021/04/11 01:19:08;;;;;;;;;;;20.80;38.50;;;;;;5055081;28;19909;-76
2021/04/11 01:21:41;;;;;;;;;;;20.70;38.80;;;;;;5055069;28;19904;-76
2021/04/11 01:24:26;;;;;;;;;;;20.60;39.60;;;;;;5055103;28;19970;-76
2021/04/11 01:26:53;;;;;;;;;;;20.70;39.10;;;;;;5054744;28;19912;-76
2021/04/11 01:29:20;;;;;;;;;;;20.60;39.20;;;;;;5055000;28;20365;-76
2021/04/11 01:31:46;;;;;;;;;;;20.50;39.20;;;;;;5051493;28;19908;-76
2021/04/11 01:34:12;;;;;;;;;;;20.40;38.90;;;;;;5044646;28;19947;-76
2021/04/11 01:36:41;;;;;;;;;;;20.30;39.10;;;;;;5047774;28;19912;-76
2021/04/11 01:39:13;;;;;;;;;;;20.20;39.30;;;;;;5054612;28;19909;-76
2021/04/11 01:41:40;;;;;;;;;;;20.00;39.30;;;;;;5054949;28;19958;-76
2021/04/11 01:44:07;;;;;;;;;;;19.90;39.30;;;;;;5054898;28;19971;-76
2021/04/11 01:46:34;;;;;;;;;;;19.70;39.60;;;;;;5054639;28;19967;-77
2021/04/11 01:49:00;;;;;;;;;;;19.60;39.60;;;;;;5054878;28;20254;-76
2021/04/11 01:51:29;;;;;;;;;;;19.50;38.30;;;;;;5054782;28;19905;-76
2021/04/11 01:53:56;;;;;;;;;;;19.40;38.80;;;;;;5048461;28;20403;-76
2021/04/11 01:56:23;;;;;;;;;;;19.20;39.10;;;;;;5055553;28;19908;-76
2021/04/11 01:58:49;;;;;;;;;;;18.80;39.40;;;;;;5055368;28;19917;-77
2021/04/11 02:01:26;;;;;;;;;;;18.80;39.60;;;;;;5040899;28;19919;-76
2021/04/11 02:04:02;;;;;;;;;;;18.70;39.50;;;;;;5053424;28;19916;-76
2021/04/11 02:06:30;;;;;;;;;;;18.50;39.30;;;;;;5053359;28;19917;-77
2021/04/11 02:08:59;;;;;;;;;;;18.50;39.20;;;;;;5053840;28;19913;-76
2021/04/11 02:11:25;;;;;;;;;;;18.30;38.70;;;;;;5048330;28;19912;-76
2021/04/11 02:13:51;;;;;;;;;;;18.30;38.70;;;;;;5042911;28;20243;-75
2021/04/11 02:16:22;;;;;;;;;;;18.20;37.40;;;;;;5057235;28;19919;-77
2021/04/11 02:18:48;;;;;;;;;;;18.10;37.30;;;;;;5043369;28;20331;-76
2021/04/11 02:21:19;;;;;;;;;;;17.70;37.90;;;;;;5054228;28;20384;-76
2021/04/11 02:23:46;;;;;;;;;;;17.60;38.50;;;;;;5052006;28;19915;-77
2021/04/11 02:26:13;;;;;;;;;;;17.40;38.70;;;;;;5052738;28;20258;-76
2021/04/11 02:28:39;;;;;;;;;;;17.50;38.00;;;;;;5055077;28;19913;-79
2021/04/11 02:31:18;;;;;;;;;;;17.30;38.40;;;;;;5050715;28;20391;-76
2021/04/11 02:33:54;;;;;;;;;;;17.20;38.60;;;;;;5044563;28;19912;-76
2021/04/11 02:36:21;;;;;;;;;;;17.10;38.90;;;;;;5048407;28;20007;-76
2021/04/11 02:38:48;;;;;;;;;;;17.20;40.30;;;;;;5028608;28;19917;-76
2021/04/11 02:41:14;;;;;;;;;;;17.10;41.40;;;;;;5036805;28;19915;-76
2021/04/11 02:43:41;;;;;;;;;;;17.10;42.40;;;;;;5042362;28;19915;-76
2021/04/11 02:46:08;;;;;;;;;;;16.90;42.90;;;;;;5048809;28;19908;-76
2021/04/11 02:48:34;;;;;;;;;;;16.70;43.40;;;;;;5052224;28;19922;-76
2021/04/11 02:51:01;;;;;;;;;;;16.60;45.30;;;;;;5049769;28;20009;-76
2021/04/11 02:53:27;;;;;;;;;;;16.30;46.10;;;;;;5047092;28;19962;-76
2021/04/11 02:55:54;;;;;;;;;;;16.10;46.70;;;;;;5049688;28;19923;-76
2021/04/11 02:58:21;;;;;;;;;;;15.90;48.00;;;;;;5036550;28;20356;-77
2021/04/11 03:00:49;;;;;;;;;;;15.60;49.00;;;;;;5052682;28;19947;-76
2021/04/11 03:03:16;;;;;;;;;;;15.40;49.30;;;;;;5053653;28;19955;-76
2021/04/11 03:05:42;;;;;;;;;;;15.30;50.20;;;;;;5050141;28;19908;-75
2021/04/11 03:08:10;;;;;;;;;;;15.10;51.00;;;;;;5043770;28;20050;-75
2021/04/11 03:10:54;;;;;;;;;;;14.90;51.30;;;;;;5040402;28;20441;-76
2021/04/11 03:13:21;;;;;;;;;;;14.90;51.70;;;;;;5042324;28;19939;-75
2021/04/11 03:15:48;;;;;;;;;;;14.80;51.80;;;;;;5053928;28;19981;-75
2021/04/11 03:18:14;;;;;;;;;;;14.60;52.90;;;;;;5053511;28;19917;-76
2021/04/11 03:20:41;;;;;;;;;;;14.40;51.90;;;;;;5046769;28;19952;-75
2021/04/11 03:23:08;;;;;;;;;;;14.40;52.90;;;;;;5054064;28;21344;-75
2021/04/11 03:25:36;;;;;;;;;;;14.30;53.20;;;;;;5056161;28;20235;-76
2021/04/11 03:28:14;;;;;;;;;;;14.30;52.90;;;;;;5038087;28;19909;-76
2021/04/11 03:30:44;;;;;;;;;;;14.30;53.30;;;;;;5037729;28;19917;-75
2021/04/11 03:33:12;;;;;;;;;;;14.20;53.70;;;;;;5035913;28;20227;-75
2021/04/11 03:35:40;;;;;;;;;;;14.10;53.20;;;;;;5005103;28;1408837;-76
2021/04/11 03:38:07;;;;;;;;;;;14.20;53.90;;;;;;5053433;28;19909;-77
2021/04/11 03:40:38;;;;;;;;;;;14.10;53.60;;;;;;5044960;28;19963;-76
2021/04/11 03:43:14;;;;;;;;;;;14.00;54.40;;;;;;5053312;28;19912;-76
2021/04/11 03:45:40;;;;;;;;;;;13.90;54.70;;;;;;5038229;28;19909;-76
2021/04/11 03:48:11;;;;;;;;;;;13.90;55.40;;;;;;5049513;28;19966;-77
2021/04/11 03:50:43;;;;;;;;;;;13.80;56.60;;;;;;5045878;28;19974;-76
2021/04/11 03:53:32;;;;;;;;;;;13.70;56.60;;;;;;5041718;28;20339;-75
2021/04/11 03:56:00;;;;;;;;;;;13.60;56.00;;;;;;5041026;28;19909;-76
2021/04/11 03:58:29;;;;;;;;;;;13.60;55.20;;;;;;5047732;28;19909;-76
2021/04/11 04:01:06;;;;;;;;;;;13.60;56.20;;;;;;5048256;28;19971;-76
2021/04/11 04:03:33;;;;;;;;;;;13.60;54.80;;;;;;5044981;28;19978;-75
2021/04/11 04:06:03;;;;;;;;;;;13.60;55.80;;;;;;5044000;28;19917;-76
2021/04/11 04:08:29;;;;;;;;;;;13.40;56.20;;;;;;5042878;28;20321;-77
2021/04/11 04:11:12;;;;;;;;;;;13.40;55.90;;;;;;5051817;28;19987;-75
2021/04/11 04:13:56;;;;;;;;;;;13.50;56.60;;;;;;5038520;28;19905;-77
2021/04/11 04:16:41;;;;;;;;;;;13.60;56.70;;;;;;5050436;28;19999;-76
2021/04/11 04:19:11;;;;;;;;;;;13.50;57.50;;;;;;5053975;28;19978;-76
2021/04/11 04:21:48;;;;;;;;;;;13.40;56.30;;;;;;5036382;28;19905;-76
2021/04/11 04:24:33;;;;;;;;;;;13.40;56.60;;;;;;5035954;28;19992;-76
2021/04/11 04:27:05;;;;;;;;;;;13.40;57.60;;;;;;5038084;28;19940;-76
2021/04/11 04:29:30;;;;;;;;;;;13.30;57.20;;;;;;5046687;28;19915;-76
2021/04/11 04:32:15;;;;;;;;;;;13.30;58.10;;;;;;5053917;28;19909;-75
2021/04/11 04:35:19;;;;;;;;;;;13.30;57.90;;;;;;5049958;28;19908;-74
2021/04/11 04:37:52;;;;;;;;;;;13.20;58.20;;;;;;4975198;28;19918;-75
2021/04/11 04:40:26;;;;;;;;;;;13.20;57.60;;;;;;4978592;28;19909;-75
2021/04/11 04:42:54;;;;;;;;;;;13.00;56.90;;;;;;5026532;28;19909;-75
2021/04/11 04:45:41;;;;;;;;;;;12.90;56.60;;;;;;5055533;28;19915;-75
2021/04/11 04:48:07;;;;;;;;;;;13.00;57.30;;;;;;5041196;28;19908;-74
2021/04/11 04:50:36;;;;;;;;;;;12.80;57.80;;;;;;5037956;28;19913;-75
2021/04/11 04:53:17;;;;;;;;;;;12.80;57.90;;;;;;5031369;28;19909;-75
2021/04/11 04:55:48;;;;;;;;;;;12.90;56.60;;;;;;5050727;28;19913;-76
2021/04/11 04:58:19;;;;;;;;;;;12.70;56.00;;;;;;5055276;28;19917;-75
2021/04/11 05:00:50;;;;;;;;;;;12.80;56.00;;;;;;5023310;28;19999;-75
2021/04/11 05:03:42;;;;;;;;;;;12.90;57.00;;;;;;5045192;28;20227;-75
2021/04/11 05:06:15;;;;;;;;;;;12.80;56.80;;;;;;5052331;28;20418;-76
2021/04/11 05:08:46;;;;;;;;;;;12.60;56.80;;;;;;5036967;28;19916;-76
2021/04/11 05:11:18;;;;;;;;;;;12.90;55.70;;;;;;5043822;28;19909;-75
2021/04/11 05:14:02;;;;;;;;;;;12.90;56.00;;;;;;5053028;28;19912;-76
2021/04/11 05:16:48;;;;;;;;;;;12.70;56.90;;;;;;5050173;28;19908;-75
2021/04/11 05:19:28;;;;;;;;;;;12.90;56.80;;;;;;5042123;28;19912;-75
2021/04/11 05:22:12;;;;;;;;;;;12.70;57.20;;;;;;5053281;28;19955;-76
2021/04/11 05:24:41;;;;;;;;;;;13.00;56.80;;;;;;5046436;28;19939;-75
2021/04/11 05:27:39;;;;;;;;;;;12.90;56.50;;;;;;5019968;28;19925;-76
2021/04/11 05:30:08;;;;;;;;;;;12.80;55.90;;;;;;4998788;28;19995;-75
2021/04/11 05:32:34;;;;;;;;;;;12.80;56.30;;;;;;5048454;28;20326;-76
2021/04/11 05:35:00;;;;;;;;;;;12.80;55.70;;;;;;5054027;28;19919;-76
2021/04/11 05:37:32;;;;;;;;;;;12.70;55.40;;;;;;5056637;28;19962;-75
2021/04/11 05:40:04;;;;;;;;;;;12.60;55.30;;;;;;5053182;28;19920;-76
2021/04/11 05:42:36;;;;;;;;;;;12.60;55.50;;;;;;5030515;28;19909;-76
2021/04/11 05:45:11;;;;;;;;;;;12.70;55.30;;;;;;5051971;28;20342;-76
2021/04/11 05:47:55;;;;;;;;;;;12.60;55.40;;;;;;5053253;28;19970;-76
2021/04/11 05:50:43;;;;;;;;;;;12.60;55.50;;;;;;5055284;28;19909;-76
2021/04/11 05:53:12;;;;;;;;;;;12.60;54.70;;;;;;5055684;28;19936;-75
2021/04/11 05:55:39;;;;;;;;;;;12.50;54.60;;;;;;5053942;28;19923;-76
2021/04/11 05:58:12;;;;;;;;;;;12.50;54.70;;;;;;5049768;28;19970;-76
2021/04/11 06:00:41;;;;;;;;;;;12.50;54.30;;;;;;5049530;28;19920;-76
2021/04/11 06:03:09;;;;;;;;;;;12.40;54.70;;;;;;5038691;28;19958;-75
2021/04/11 06:05:42;;;;;;;;;;;12.50;54.50;;;;;;5027016;28;19959;-76
2021/04/11 06:08:12;;;;;;;;;;;12.60;55.30;;;;;;5053106;28;19920;-76
2021/04/11 06:10:44;;;;;;;;;;;12.50;54.90;;;;;;5036826;28;20330;-76
2021/04/11 06:13:26;;;;;;;;;;;12.50;56.10;;;;;;5052226;28;20346;-75
2021/04/11 06:16:03;;;;;;;;;;;12.60;57.70;;;;;;5049655;28;19915;-76
2021/04/11 06:18:29;;;;;;;;;;;12.80;56.80;;;;;;5051885;28;19908;-75
2021/04/11 06:20:56;;;;;;;;;;;12.70;56.50;;;;;;5028294;28;19966;-75
2021/04/11 06:23:32;;;;;;;;;;;12.70;58.40;;;;;;5035112;28;19980;-75
2021/04/11 06:26:07;;;;;;;;;;;12.70;57.00;;;;;;5052958;28;19917;-75
2021/04/11 06:28:48;;;;;;;;;;;12.80;58.10;;;;;;5034985;28;20297;-75
2021/04/11 06:31:35;;;;;;;;;;;12.80;58.40;;;;;;5053722;28;19916;-75
2021/04/11 06:34:05;;;;;;;;;;;12.60;56.60;;;;;;5053667;28;19909;-75
2021/04/11 06:36:36;;;;;;;;;;;12.70;58.20;;;;;;5035561;28;19913;-75
2021/04/11 06:39:11;;;;;;;;;;;12.70;57.40;;;;;;5043489;28;20058;-75
2021/04/11 06:41:55;;;;;;;;;;;12.50;57.20;;;;;;5052257;28;20335;-75
2021/04/11 06:44:45;;;;;;;;;;;12.40;56.80;;;;;;5060941;28;19904;-75
2021/04/11 06:47:30;;;;;;;;;;;12.40;57.30;;;;;;5053994;28;19917;-75
2021/04/11 06:50:14;;;;;;;;;;;12.40;57.30;;;;;;5050150;28;20315;-76
2021/04/11 06:52:53;;;;;;;;;;;12.50;58.10;;;;;;5041551;28;19913;-75
2021/04/11 06:55:44;;;;;;;;;;;12.40;56.70;;;;;;5030807;28;19915;-76
2021/04/11 06:58:19;;;;;;;;;;;12.40;58.10;;;;;;5037352;28;19954;-75
2021/04/11 07:01:05;;;;;;;;;;;12.40;57.60;;;;;;5039861;28;19920;-75
2021/04/11 07:03:34;;;;;;;;;;;12.30;57.30;;;;;;5048839;28;19909;-75
2021/04/11 07:06:20;;;;;;;;;;;12.30;57.30;;;;;;5053820;28;19909;-75
2021/04/11 07:09:05;;;;;;;;;;;12.20;57.30;;;;;;5015462;28;20352;-75
2021/04/11 07:11:43;;;;;;;;;;;12.10;57.40;;;;;;5048671;28;19913;-75
2021/04/11 07:14:09;;;;;;;;;;;12.20;58.70;;;;;;5055515;28;19920;-75
2021/04/11 07:16:52;;;;;;;;;;;12.30;58.80;;;;;;5054948;28;19908;-75
2021/04/11 07:19:18;;;;;;;;;;;12.20;59.20;;;;;;5054926;28;20305;-75
2021/04/11 07:22:04;;;;;;;;;;;12.40;59.20;;;;;;5050565;28;19952;-76
2021/04/11 07:24:48;;;;;;;;;;;12.30;58.50;;;;;;5043402;28;19963;-75
2021/04/11 07:27:27;;;;;;;;;;;12.40;58.90;;;;;;5052142;28;19927;-75
2021/04/11 07:29:53;;;;;;;;;;;12.50;59.80;;;;;;5054948;28;19912;-75
2021/04/11 07:32:33;;;;;;;;;;;12.50;59.60;;;;;;5050341;28;20308;-75
2021/04/11 07:35:17;;;;;;;;;;;12.50;59.80;;;;;;5055917;28;19915;-75
2021/04/11 07:38:02;;;;;;;;;;;12.60;60.00;;;;;;5050655;28;20273;-75
2021/04/11 07:40:34;;;;;;;;;;;12.50;59.50;;;;;;5052182;28;19916;-75
2021/04/11 07:43:06;;;;;;;;;;;12.50;59.40;;;;;;5055112;28;19919;-74
2021/04/11 07:45:50;;;;;;;;;;;12.40;59.80;;;;;;5047532;28;19971;-75
2021/04/11 07:48:35;;;;;;;;;;;12.30;59.70;;;;;;5053847;28;19923;-75
2021/04/11 07:51:19;;;;;;;;;;;12.30;59.20;;;;;;5054913;28;19915;-76
2021/04/11 07:53:51;;;;;;;;;;;12.30;59.30;;;;;;5048758;28;19909;-75
2021/04/11 07:56:23;;;;;;;;;;;12.30;59.50;;;;;;5053541;28;19908;-75
2021/04/11 07:59:08;;;;;;;;;;;12.30;59.50;;;;;;5046020;28;19909;-75
2021/04/11 08:01:52;;;;;;;;;;;12.10;58.90;;;;;;5062504;28;19912;-75
2021/04/11 08:04:23;;;;;;;;;;;12.20;59.30;;;;;;5050815;28;19992;-75
2021/04/11 08:06:56;;;;;;;;;;;12.30;59.40;;;;;;5048895;28;19908;-75
2021/04/11 08:09:37;;;;;;;;;;;12.30;59.30;;;;;;5045609;28;19909;-76
2021/04/11 08:12:24;;;;;;;;;;;12.20;59.30;;;;;;5051136;28;19916;-76
2021/04/11 08:15:08;;;;;;;;;;;12.20;59.00;;;;;;5054955;28;19908;-76
2021/04/11 08:17:53;;;;;;;;;;;12.20;60.10;;;;;;5054658;28;19919;-76
2021/04/11 08:20:31;;;;;;;;;;;12.30;59.80;;;;;;5051050;28;19964;-76
2021/04/11 08:23:00;;;;;;;;;;;12.40;60.00;;;;;;5054319;28;19909;-75
2021/04/11 08:25:34;;;;;;;;;;;12.40;60.40;;;;;;5072901;28;19915;-76
2021/04/11 08:28:27;;;;;;;;;;;12.50;60.00;;;;;;5054311;28;19924;-76
2021/04/11 08:31:08;;;;;;;;;;;12.30;59.60;;;;;;5053991;28;19912;-76
2021/04/11 08:33:34;;;;;;;;;;;12.30;59.70;;;;;;5054692;28;19913;-76
2021/04/11 08:36:11;;;;;;;;;;;12.20;61.60;;;;;;5052083;28;19969;-75
2021/04/11 08:38:50;;;;;;;;;;;12.40;61.00;;;;;;5051668;28;19908;-74
2021/04/11 08:41:15;;;;;;;;;;;12.20;60.40;;;;;;5037081;28;19913;-76
2021/04/11 08:44:05;;;;;;;;;;;12.10;60.50;;;;;;5037147;28;19915;-76
2021/04/11 08:46:37;;;;;;;;;;;12.00;60.20;;;;;;5053058;28;19909;-75
2021/04/11 08:49:12;;;;;;;;;;;12.10;60.40;;;;;;5054684;28;19908;-75
2021/04/11 08:51:44;;;;;;;;;;;12.20;60.70;;;;;;5052383;28;20346;-76
2021/04/11 08:54:25;;;;;;;;;;;12.20;60.70;;;;;;5044083;28;19909;-76
2021/04/11 08:57:02;;;;;;;;;;;12.10;60.60;;;;;;5048860;28;19919;-76
2021/04/11 08:59:59;;;;;;;;;;;12.00;60.20;;;;;;5055207;28;19926;-76
2021/04/11 09:02:25;;;;;;;;;;;11.90;60.70;;;;;;5044433;28;20008;-75
2021/04/11 09:04:54;;;;;;;;;;;11.70;60.90;;;;;;5054420;28;19999;-75
2021/04/11 09:07:36;;;;;;;;;;;11.70;61.10;;;;;;5055207;28;19962;-75
2021/04/11 09:10:18;;;;;;;;;;;11.80;60.70;;;;;;5052437;28;20263;-75
2021/04/11 09:12:47;;;;;;;;;;;11.80;60.60;;;;;;5043773;28;19960;-76
2021/04/11 09:15:22;;;;;;;;;;;11.90;60.20;;;;;;5054823;28;19955;-76
2021/04/11 09:17:52;;;;;;;;;;;11.90;59.90;;;;;;5052281;28;20414;-75
2021/04/11 09:20:18;;;;;;;;;;;11.90;59.90;;;;;;5043259;28;19913;-75
2021/04/11 09:22:53;;;;;;;;;;;11.80;61.00;;;;;;5046894;28;19935;-75
2021/04/11 09:25:27;;;;;;;;;;;11.70;60.20;;;;;;5053572;28;19939;-75
2021/04/11 09:28:02;;;;;;;;;;;11.70;60.70;;;;;;5053510;28;19917;-75
2021/04/11 09:30:40;;;;;;;;;;;11.70;61.60;;;;;;5036305;28;20346;-75
2021/04/11 09:33:24;;;;;;;;;;;11.70;61.20;;;;;;5046985;28;19948;-76
2021/04/11 09:35:59;;;;;;;;;;;11.60;59.80;;;;;;5052906;28;19912;-76
2021/04/11 09:38:31;;;;;;;;;;;11.60;60.30;;;;;;5051731;28;19909;-75
2021/04/11 09:41:18;;;;;;;;;;;11.60;59.60;;;;;;5053950;28;19942;-75
2021/04/11 09:43:50;;;;;;;;;;;11.70;59.60;;;;;;5053658;28;19940;-75
2021/04/11 09:46:35;;;;;;;;;;;11.80;60.40;;;;;;5052685;28;19908;-76
2021/04/11 09:49:02;;;;;;;;;;;11.70;59.40;;;;;;5052522;28;20264;-75
2021/04/11 09:51:38;;;;;;;;;;;11.70;60.00;;;;;;5049433;28;19916;-76
2021/04/11 09:54:24;;;;;;;;;;;11.80;60.00;;;;;;5035736;28;20260;-76
2021/04/11 09:57:05;;;;;;;;;;;11.70;59.60;;;;;;5022963;28;19917;-76
2021/04/11 09:59:31;;;;;;;;;;;11.70;60.10;;;;;;5045705;28;20024;-76
2021/04/11 10:02:14;;;;;;;;;;;11.70;60.30;;;;;;5051985;28;20595;-75
2021/04/11 10:04:57;;;;;;;;;;;11.70;59.90;;;;;;5035914;28;19909;-75
2021/04/11 10:07:37;;;;;;;;;;;11.60;59.80;;;;;;5053842;28;19909;-75
2021/04/11 10:10:26;;;;;;;;;;;11.60;60.00;;;;;;5053131;28;19916;-75
2021/04/11 10:12:58;;;;;;;;;;;11.50;59.70;;;;;;5020367;28;20009;-75
2021/04/11 10:15:30;;;;;;;;;;;11.50;59.70;;;;;;5052329;28;19916;-75
2021/04/11 10:18:15;;;;;;;;;;;11.60;60.00;;;;;;5055313;28;20219;-75
2021/04/11 10:20:59;;;;;;;;;;;11.60;60.00;;;;;;5055918;28;20338;-75
2021/04/11 10:23:30;;;;;;;;;;;11.80;60.10;;;;;;5055621;28;19965;-75
2021/04/11 10:26:01;;;;;;;;;;;11.80;60.60;;;;;;5062426;28;19912;-75
2021/04/11 10:28:43;;;;;;;;;;;11.80;59.60;;;;;;5055855;28;20274;-75
2021/04/11 10:31:10;;;;;;;;;;;11.70;59.90;;;;;;5053170;28;19908;-75
2021/04/11 10:33:46;;;;;;;;;;;11.60;60.40;;;;;;5059204;28;20294;-74
2021/04/11 10:36:15;;;;;;;;;;;11.60;60.90;;;;;;5062912;28;19912;-75
2021/04/11 10:38:44;;;;;;;;;;;11.50;60.80;;;;;;5051023;28;19916;-76
2021/04/11 10:41:25;;;;;;;;;;;11.50;61.60;;;;;;5036103;28;19948;-75
2021/04/11 10:44:09;;;;;;;;;;;11.60;62.00;;;;;;5057002;28;19948;-75
2021/04/11 10:46:54;;;;;;;;;;;11.50;60.80;;;;;;5055738;28;20005;-74
2021/04/11 10:49:55;;;;;;;;;;;11.50;61.00;;;;;;5056424;28;19908;-75
2021/04/11 10:52:34;;;;;;;;;;;11.30;60.80;;;;;;4978249;28;19910;-75
2021/04/11 10:55:18;;;;;;;;;;;11.20;61.30;;;;;;5047965;28;19909;-77
2021/04/11 10:57:53;;;;;;;;;;;11.30;61.40;;;;;;5055488;28;19909;-75
2021/04/11 11:00:37;;;;;;;;;;;11.20;60.60;;;;;;5055262;28;19924;-75
2021/04/11 11:03:29;;;;;;;;;;;11.20;60.50;;;;;;5050996;28;20007;-74
2021/04/11 11:06:17;;;;;;;;;;;11.20;61.20;;;;;;5042411;28;19932;-74
2021/04/11 11:08:51;;;;;;;;;;;11.20;60.90;;;;;;5048075;28;20361;-75
2021/04/11 11:11:36;;;;;;;;;;;11.30;61.90;;;;;;5049616;28;19909;-75
2021/04/11 11:14:07;;;;;;;;;;;11.40;61.50;;;;;;5038983;28;19916;-76
2021/04/11 11:16:52;;;;;;;;;;;11.50;62.90;;;;;;5053635;28;19923;-74
2021/04/11 11:19:38;;;;;;;;;;;11.50;63.00;;;;;;5055795;28;19919;-75
2021/04/11 11:22:14;;;;;;;;;;;11.60;62.40;;;;;;5015131;28;19909;-75
2021/04/11 11:24:55;;;;;;;;;;;11.60;62.70;;;;;;5042709;28;19915;-75
2021/04/11 11:27:41;;;;;;;;;;;11.60;62.40;;;;;;5054657;28;20449;-75
2021/04/11 11:30:11;;;;;;;;;;;11.50;62.10;;;;;;5056072;28;19909;-74
2021/04/11 11:32:37;;;;;;;;;;;11.50;63.50;;;;;;5054289;28;19920;-75
2021/04/11 11:35:08;;;;;;;;;;;11.60;62.30;;;;;;5047312;28;19908;-74
2021/04/11 11:37:46;;;;;;;;;;;11.40;62.20;;;;;;5050962;28;19920;-75
2021/04/11 11:40:15;;;;;;;;;;;11.40;62.00;;;;;;5052540;28;19919;-75
2021/04/11 11:42:41;;;;;;;;;;;11.30;63.40;;;;;;5054646;28;19909;-75
2021/04/11 11:45:07;;;;;;;;;;;11.50;63.50;;;;;;5038130;28;19920;-74
2021/04/11 11:47:42;;;;;;;;;;;11.50;63.50;;;;;;5055330;28;20018;-74
2021/04/11 11:50:08;;;;;;;;;;;11.30;64.40;;;;;;5054023;28;19916;-76
2021/04/11 11:52:34;;;;;;;;;;;11.50;63.70;;;;;;5053122;28;20000;-74
2021/04/11 11:55:13;;;;;;;;;;;11.40;63.30;;;;;;5053886;28;20219;-74
2021/04/11 11:57:51;;;;;;;;;;;11.60;63.80;;;;;;5053063;28;20009;-75
2021/04/11 12:00:37;;;;;;;;;;;11.50;63.60;;;;;;5030029;28;20480;-74
2021/04/11 12:03:18;;;;;;;;;;;11.60;63.10;;;;;;5052387;28;19915;-74
2021/04/11 12:05:57;;;;;;;;;;;11.40;62.60;;;;;;5050195;28;20322;-74
2021/04/11 12:08:41;;;;;;;;;;;11.50;62.50;;;;;;5037893;28;19971;-75
2021/04/11 12:11:14;;;;;;;;;;;11.60;63.70;;;;;;5054492;28;20338;-74
2021/04/11 12:13:43;;;;;;;;;;;11.50;62.50;;;;;;5051508;28;19909;-74
2021/04/11 12:16:18;;;;;;;;;;;11.70;62.80;;;;;;5051607;28;20357;-75
2021/04/11 12:18:51;;;;;;;;;;;11.80;62.90;;;;;;5046958;28;20321;-75
2021/04/11 12:21:23;;;;;;;;;;;11.80;63.10;;;;;;5036426;28;19909;-74
2021/04/11 12:23:59;;;;;;;;;;;11.70;62.40;;;;;;5048828;28;20266;-74
2021/04/11 12:26:31;;;;;;;;;;;11.60;62.40;;;;;;5052856;28;19917;-75
2021/04/11 12:29:04;;;;;;;;;;;11.60;63.20;;;;;;5041283;28;19931;-75
2021/04/11 12:31:34;;;;;;;;;;;11.50;63.10;;;;;;5058214;28;19916;-74
2021/04/11 12:34:19;;;;;;;;;;;11.50;63.50;;;;;;5052768;28;19908;-75
2021/04/11 12:36:45;;;;;;;;;;;11.60;63.00;;;;;;5053894;28;19920;-75
2021/04/11 12:39:31;;;;;;;;;;;11.60;63.80;;;;;;5037913;28;19909;-75
2021/04/11 12:42:08;;;;;;;;;;;11.70;63.40;;;;;;5044398;28;19909;-75
2021/04/11 12:44:52;;;;;;;;;;;11.70;63.60;;;;;;5045503;28;20011;-75
2021/04/11 12:47:18;;;;;;;;;;;11.70;63.20;;;;;;5054989;28;19909;-75
2021/04/11 12:49:44;;;;;;;;;;;11.60;64.10;;;;;;5047050;28;19916;-75
2021/04/11 12:52:27;;;;;;;;;;;11.50;63.10;;;;;;5037063;28;20251;-75
2021/04/11 12:55:02;;;;;;;;;;;11.60;63.70;;;;;;5053157;28;19912;-75
2021/04/11 12:57:31;;;;;;;;;;;11.70;64.00;;;;;;5049576;28;19939;-75
2021/04/11 13:00:00;;;;;;;;;;;11.80;64.00;;;;;;5035773;28;19951;-75
2021/04/11 13:02:30;;;;;;;;;;;11.70;63.60;;;;;;5053767;28;20024;-74
2021/04/11 13:05:05;;;;;;;;;;;11.60;63.10;;;;;;5054097;28;19909;-74
2021/04/11 13:07:35;;;;;;;;;;;11.50;63.90;;;;;;5053144;28;19916;-75
2021/04/11 13:10:14;;;;;;;;;;;11.60;64.40;;;;;;5044993;28;19913;-74
2021/04/11 13:12:46;;;;;;;;;;;11.50;63.80;;;;;;5048925;28;20335;-74
2021/04/11 13:15:15;;;;;;;;;;;11.30;63.40;;;;;;5044148;28;19909;-74
2021/04/11 13:18:01;;;;;;;;;;;11.40;63.90;;;;;;5036284;28;20327;-74
2021/04/11 13:20:29;;;;;;;;;;;11.50;64.90;;;;;;5021940;28;19920;-74
2021/04/11 13:23:06;;;;;;;;;;;11.60;64.10;;;;;;5054114;28;19909;-74
2021/04/11 13:25:35;;;;;;;;;;;11.50;63.60;;;;;;5037243;28;19909;-74
2021/04/11 13:28:07;;;;;;;;;;;11.40;63.60;;;;;;5053906;28;20003;-74
2021/04/11 13:30:38;;;;;;;;;;;11.30;63.60;;;;;;5051129;28;19905;-74
2021/04/11 13:33:04;;;;;;;;;;;11.40;63.80;;;;;;5054315;28;20003;-74
2021/04/11 13:35:36;;;;;;;;;;;11.40;64.20;;;;;;5051873;28;19920;-75
2021/04/11 13:38:22;;;;;;;;;;;11.50;63.80;;;;;;5053064;28;19967;-75
2021/04/11 13:40:49;;;;;;;;;;;11.60;63.90;;;;;;5041358;28;19912;-75
2021/04/11 13:43:24;;;;;;;;;;;11.40;63.70;;;;;;5054425;28;20388;-75
2021/04/11 13:45:56;;;;;;;;;;;11.20;64.30;;;;;;5035571;28;19905;-74
2021/04/11 13:48:34;;;;;;;;;;;11.10;64.80;;;;;;5050182;28;19958;-73
2021/04/11 13:51:09;;;;;;;;;;;11.10;64.00;;;;;;5042082;28;19908;-73
2021/04/11 13:53:53;;;;;;;;;;;11.00;64.80;;;;;;5058489;28;19913;-73
2021/04/11 13:56:31;;;;;;;;;;;11.10;64.10;;;;;;5058439;28;19908;-73
2021/04/11 13:59:04;;;;;;;;;;;11.10;63.60;;;;;;5050123;28;19932;-73
2021/04/11 14:01:39;;;;;;;;;;;11.20;63.80;;;;;;5049740;28;19913;-73
2021/04/11 14:04:25;;;;;;;;;;;11.00;64.90;;;;;;5045221;28;19908;-74
2021/04/11 14:06:58;;;;;;;;;;;11.10;65.70;;;;;;5050510;28;19909;-73
2021/04/11 14:09:39;;;;;;;;;;;11.10;65.20;;;;;;5051945;28;19924;-73
2021/04/11 14:12:10;;;;;;;;;;;11.00;66.50;;;;;;5049007;28;19908;-73
2021/04/11 14:14:49;;;;;;;;;;;11.00;66.40;;;;;;5052352;28;20254;-73
2021/04/11 14:17:21;;;;;;;;;;;11.10;64.80;;;;;;5052967;28;19913;-73
2021/04/11 14:19:47;;;;;;;;;;;11.20;64.50;;;;;;5053429;28;19913;-74
2021/04/11 14:22:19;;;;;;;;;;;11.40;64.50;;;;;;5037550;28;19913;-74
2021/04/11 14:24:45;;;;;;;;;;;11.50;64.50;;;;;;5055117;28;20443;-73
2021/04/11 14:27:11;;;;;;;;;;;11.60;64.60;;;;;;5059076;28;19959;-73
2021/04/11 14:29:55;;;;;;;;;;;11.60;64.20;;;;;;5057056;28;20160;-74
2021/04/11 14:32:26;;;;;;;;;;;11.80;64.10;;;;;;5053597;28;19919;-74
2021/04/11 14:34:52;;;;;;;;;;;11.80;63.70;;;;;;5052853;28;20330;-73
2021/04/11 14:37:34;;;;;;;;;;;11.80;64.20;;;;;;5058081;28;19908;-73
2021/04/11 14:40:19;;;;;;;;;;;11.90;63.70;;;;;;5053495;28;19916;-73
2021/04/11 14:42:50;;;;;;;;;;;11.80;63.70;;;;;;5036771;28;19958;-74
2021/04/11 14:45:19;;;;;;;;;;;11.90;63.90;;;;;;5050512;28;19908;-74
2021/04/11 14:47:54;;;;;;;;;;;12.00;63.80;;;;;;5056960;28;19951;-74
2021/04/11 14:50:26;;;;;;;;;;;12.10;64.10;;;;;;5054855;28;20425;-74
2021/04/11 14:53:00;;;;;;;;;;;12.40;63.50;;;;;;5055177;28;20286;-73
2021/04/11 14:55:45;;;;;;;;;;;12.40;63.30;;;;;;5042621;28;19916;-74